Time;durP1;ratioP1;P1;durP2;ratioP2;P2;SDS_P1;SDS_P2;PMS_P1;PMS_P2;Temp;Humidity;BMP_temperature;BMP_pressure;BME280_temperature;BME280_humidity;BME280_pressure;Samples;Min_cycle;Max_cycle;Signal;HPM_P1;HPM_P2
2022/03/19 00:08:57;;;;;;;8.98;4.30;;;;;;;2.85;60.73;102897.25;18430217;32;20119;-64
2022/03/19 00:19:02;;;;;;;8.80;4.20;;;;;;;3.03;60.78;102881.22;18429310;32;20104;-64
2022/03/19 00:29:05;;;;;;;6.07;4.72;;;;;;;3.17;59.44;102874.44;18428938;32;20118;-63
2022/03/19 00:39:10;;;;;;;9.90;5.22;;;;;;;2.85;60.32;102873.13;18428538;32;20163;-64
2022/03/19 00:49:13;;;;;;;13.25;5.10;;;;;;;2.71;60.27;102864.41;18427642;32;20088;-64
2022/03/19 00:59:17;;;;;;;4.60;4.15;;;;;;;2.46;62.16;102857.53;18427444;32;20717;-64
2022/03/19 01:09:21;;;;;;;8.38;4.28;;;;;;;2.40;62.03;102847.69;18425870;32;20114;-65
2022/03/19 01:29:42;;;;;;;6.25;5.55;;;;;;;2.14;60.75;102828.69;18433329;32;20368;-64
2022/03/19 01:39:47;;;;;;;5.78;4.37;;;;;;;1.40;61.76;102824.19;18433852;32;20369;-64
2022/03/19 01:49:51;;;;;;;4.90;3.40;;;;;;;1.45;60.99;102822.87;18433440;32;20104;-64
2022/03/19 01:59:58;;;;;;;12.25;4.22;;;;;;;1.24;61.72;102809.28;18433126;32;20413;-64
2022/03/19 02:10:02;;;;;;;5.03;2.60;;;;;;;1.20;62.45;102804.69;18432755;32;20100;-64
2022/03/19 02:20:08;;;;;;;4.03;2.60;;;;;;;1.28;62.75;102803.59;18432682;32;20130;-65
2022/03/19 02:30:15;;;;;;;6.68;2.58;;;;;;;1.25;61.83;102798.22;18432331;32;20107;-64
2022/03/19 02:40:20;;;;;;;6.47;3.97;;;;;;;1.09;62.51;102796.16;18432487;32;20104;-64
2022/03/19 02:50:27;;;;;;;8.40;5.03;;;;;;;1.17;62.43;102786.44;18428953;32;102993;-64
2022/03/19 03:00:31;;;;;;;3.97;3.20;;;;;;;1.33;61.48;102791.97;18431853;32;20140;-63
2022/03/19 03:10:36;;;;;;;8.77;3.53;;;;;;;0.98;63.13;102789.31;18431586;32;20092;-64
2022/03/19 03:20:40;;;;;;;1.55;1.45;;;;;;;1.23;62.75;102790.41;18431323;32;20101;-63
2022/03/19 03:30:44;;;;;;;12.90;4.47;;;;;;;1.11;63.48;102779.16;18431107;32;20107;-64
2022/03/19 03:40:47;;;;;;;5.12;4.30;;;;;;;1.28;63.90;102777.88;18430736;32;20470;-63
2022/03/19 03:50:53;;;;;;;3.42;2.67;;;;;;;1.82;63.02;102777.44;18429664;32;20093;-64
2022/03/19 04:00:57;;;;;;;6.62;4.60;;;;;;;2.00;63.42;102762.37;18429802;32;20461;-63
2022/03/19 04:11:04;;;;;;;8.75;4.60;;;;;;;2.06;62.92;102766.28;18429330;32;20100;-64
2022/03/19 04:21:07;;;;;;;6.43;2.65;;;;;;;2.14;62.78;102761.69;18398683;32;20108;-64
2022/03/19 04:31:12;;;;;;;4.82;3.35;;;;;;;2.34;62.69;102754.47;18364766;32;20113;-64
2022/03/19 04:41:15;;;;;;;2.95;2.40;;;;;;;2.63;62.79;102761.59;18384091;32;20097;-64
2022/03/19 04:51:21;;;;;;;5.75;3.67;;;;;;;2.46;63.18;102768.19;18391118;32;20096;-65
2022/03/19 05:01:26;;;;;;;13.82;4.53;;;;;;;2.26;64.41;102773.66;18395815;32;20120;-64
2022/03/19 05:11:31;;;;;;;4.53;3.22;;;;;;;2.56;63.90;102767.16;18397069;32;20442;-65
2022/03/19 05:21:35;;;;;;;4.72;4.32;;;;;;;2.54;64.05;102775.56;18408177;32;20090;-64
2022/03/19 05:31:39;;;;;;;8.38;4.93;;;;;;;2.74;64.15;102777.81;18397976;32;20085;-64
2022/03/19 05:41:43;;;;;;;8.65;5.70;;;;;;;3.01;63.85;102772.75;18396965;32;20681;-64
2022/03/19 05:51:48;;;;;;;4.82;3.47;;;;;;;3.78;61.34;102777.66;18434386;32;20097;-64
2022/03/19 06:01:51;;;;;;;9.55;4.37;;;;;;;4.09;61.49;102780.50;18434750;32;20115;-64
2022/03/19 06:11:56;;;;;;;9.55;5.37;;;;;;;4.85;59.28;102777.38;18434231;32;20100;-64
2022/03/19 06:22:01;;;;;;;4.75;3.47;;;;;;;4.44;59.27;102794.75;18434175;32;20132;-64
2022/03/19 06:32:08;;;;;;;6.97;6.28;;;;;;;4.33;59.95;102792.28;18405347;32;20794;-64
2022/03/19 06:42:11;;;;;;;17.17;9.75;;;;;;;4.32;59.20;102794.00;18395670;32;20120;-64
2022/03/19 06:52:16;;;;;;;20.62;9.15;;;;;;;4.51;58.62;102797.72;18433468;32;20114;-64
2022/03/19 07:02:19;;;;;;;14.48;7.47;;;;;;;5.14;56.69;102791.16;18434953;32;20144;-64
2022/03/19 07:12:24;;;;;;;14.85;7.85;;;;;;;6.22;53.50;102798.03;18433182;32;20408;-64
2022/03/19 07:22:27;;;;;;;14.55;6.55;;;;;;;6.88;50.58;102793.66;18418969;32;20106;-64
2022/03/19 07:32:32;;;;;;;9.27;5.18;;;;;;;7.28;49.16;102797.41;18368313;32;20084;-64
2022/03/19 07:42:36;;;;;;;11.57;3.97;;;;;;;8.03;46.38;102807.06;18384780;32;20115;-64
2022/03/19 07:52:43;;;;;;;9.65;3.47;;;;;;;7.98;45.48;102811.19;18431446;32;20179;-64
2022/03/19 08:02:47;;;;;;;10.05;5.20;;;;;;;8.30;43.03;102810.09;18431522;32;20111;-64
2022/03/19 08:12:55;;;;;;;10.05;5.55;;;;;;;9.01;41.36;102811.47;18385665;32;20119;-64
2022/03/19 08:23:00;;;;;;;130.75;44.90;;;;;;;9.32;39.87;102809.28;18402864;32;20105;-64
2022/03/19 08:33:04;;;;;;;8.32;4.45;;;;;;;9.66;38.80;102806.31;18363596;32;20651;-64
2022/03/19 08:43:07;;;;;;;6.72;3.50;;;;;;;10.14;35.22;102804.69;18364055;32;20100;-65
2022/03/19 08:53:12;;;;;;;8.68;3.62;;;;;;;10.31;35.15;102809.69;18362541;32;20097;-65
2022/03/19 09:03:16;;;;;;;9.25;4.12;;;;;;;11.59;32.13;102804.53;18365466;32;20151;-65
2022/03/19 09:13:21;;;;;;;8.85;3.15;;;;;;;11.60;31.68;102795.84;18363584;32;20105;-65
2022/03/19 09:23:24;;;;;;;8.43;3.35;;;;;;;11.60;31.67;102801.06;18363315;32;20453;-65
2022/03/19 09:33:29;;;;;;;9.68;3.53;;;;;;;12.68;30.11;102782.47;18362708;32;20119;-65
2022/03/19 09:43:33;;;;;;;10.00;3.67;;;;;;;13.32;28.62;102789.34;18364203;32;20111;-67
2022/03/19 09:53:37;;;;;;;9.45;4.18;;;;;;;12.00;29.65;102791.84;18372462;32;20105;-66
2022/03/19 10:04:01;;;;;;;7.55;3.22;;;;;;;16.62;23.36;102759.16;18371113;32;20485;-66
2022/03/19 10:14:07;;;;;;;16.33;6.55;;;;;;;15.27;23.84;102770.56;18372528;32;20093;-67
2022/03/19 10:24:22;;;;;;;74.87;31.30;;;;;;;13.26;25.29;102769.09;18374564;32;20089;-67
2022/03/19 10:34:26;;;;;;;11.20;4.03;;;;;;;12.57;25.09;102761.19;18382872;32;20186;-66
2022/03/19 10:44:30;;;;;;;8.85;3.10;;;;;;;14.57;23.74;102751.78;18389043;32;20081;-66
2022/03/19 10:54:35;;;;;;;10.48;4.35;;;;;;;14.21;24.30;102749.34;18386586;32;20077;-66
2022/03/19 11:04:39;;;;;;;25.37;11.10;;;;;;;15.66;22.94;102742.19;18384165;32;20115;-67
2022/03/19 11:14:44;;;;;;;7.78;2.70;;;;;;;15.90;22.82;102724.94;18406659;32;20114;-66
2022/03/19 11:24:53;;;;;;;52.10;19.52;;;;;;;14.73;24.14;102710.06;18412447;32;20381;-66
2022/03/19 11:34:59;;;;;;;9.35;3.05;;;;;;;12.51;25.67;102698.16;18429366;32;20100;-65
2022/03/19 11:45:10;;;;;;;13.68;4.57;;;;;;;12.29;25.02;102683.59;18414751;32;20109;-65
2022/03/19 11:55:18;;;;;;;6.30;2.15;;;;;;;13.72;23.92;102659.06;18383590;32;20482;-66
2022/03/19 12:05:27;;;;;;;5.00;2.75;;;;;;;13.79;22.87;102646.94;18364792;32;20139;-66
2022/03/19 12:15:48;;;;;;;5.93;3.00;;;;;;;12.74;23.89;102654.19;18366619;32;20089;-65
2022/03/19 12:26:03;;;;;;;5.65;2.72;;;;;;;13.54;23.32;102629.81;18368762;32;20185;-67
2022/03/19 12:36:15;;;;;;;5.00;3.17;;;;;;;13.63;22.88;102643.13;18389820;32;20112;-66
2022/03/19 12:46:23;;;;;;;7.18;3.12;;;;;;;13.26;23.32;102639.66;18366064;32;20478;-66
2022/03/19 12:56:30;;;;;;;17.90;7.75;;;;;;;12.94;24.33;102634.56;18366674;32;20115;-66
2022/03/19 13:06:36;;;;;;;9.52;4.43;;;;;;;12.98;23.58;102631.16;18402385;32;20088;-66
2022/03/19 13:16:42;;;;;;;6.97;2.70;;;;;;;12.78;22.85;102642.06;18425047;32;20115;-67
2022/03/19 13:26:46;;;;;;;4.65;2.00;;;;;;;12.30;23.25;102646.09;18413989;32;20140;-66
2022/03/19 13:36:52;;;;;;;9.23;3.40;;;;;;;12.68;21.84;102632.19;18404445;32;20093;-65
2022/03/19 13:47:06;;;;;;;10.82;3.08;;;;;;;13.10;21.62;102626.22;18426388;32;20081;-66
2022/03/19 13:57:12;;;;;;;4.82;2.25;;;;;;;13.78;19.91;102620.69;18396132;32;20096;-66
2022/03/19 14:07:32;;;;;;;7.65;3.75;;;;;;;13.04;19.34;102626.06;18434670;32;20225;-65
2022/03/19 14:17:47;;;;;;;4.53;1.95;;;;;;;13.46;18.15;102616.53;18433983;32;20134;-66
2022/03/19 14:27:51;;;;;;;4.57;2.40;;;;;;;12.59;20.85;102619.75;18428889;32;20097;-65
2022/03/19 14:37:59;;;;;;;3.35;2.15;;;;;;;13.12;19.17;102615.75;18402155;32;20470;-66
2022/03/19 14:48:03;;;;;;;4.07;2.35;;;;;;;12.53;20.09;102614.38;18407574;32;20125;-66
2022/03/19 14:58:08;;;;;;;5.78;2.00;;;;;;;12.09;20.46;102623.69;18414687;32;20436;-66
2022/03/19 15:08:11;;;;;;;3.72;2.15;;;;;;;12.58;19.92;102618.00;18407608;32;20664;-67
2022/03/19 15:18:18;;;;;;;1.62;1.52;;;;;;;11.85;20.72;102622.16;18388371;32;20097;-65
2022/03/19 15:28:21;;;;;;;4.18;1.98;;;;;;;12.17;20.32;102616.06;18432650;32;20089;-66
2022/03/19 15:38:27;;;;;;;3.35;1.98;;;;;;;11.92;19.71;102612.75;18432466;32;20081;-65
2022/03/19 15:48:30;;;;;;;2.55;1.90;;;;;;;11.43;20.49;102614.81;18421834;32;20096;-65
2022/03/19 15:58:35;;;;;;;15.93;6.05;;;;;;;11.63;19.40;102613.69;18432401;32;20422;-64
2022/03/19 16:08:39;;;;;;;14.00;4.40;;;;;;;11.87;19.33;102619.59;18405645;32;20104;-66
2022/03/19 16:18:44;;;;;;;2.37;1.60;;;;;;;11.04;19.88;102629.34;18366788;32;20081;-65
2022/03/19 16:28:47;;;;;;;7.57;2.72;;;;;;;11.37;19.41;102639.97;18367954;32;20366;-65
2022/03/19 16:38:51;;;;;;;5.75;3.15;;;;;;;10.89;19.86;102650.66;18366533;32;20101;-65
2022/03/19 16:48:55;;;;;;;3.62;2.42;;;;;;;10.59;20.03;102654.91;18382022;32;20123;-65
2022/03/19 16:58:59;;;;;;;5.30;1.95;;;;;;;10.96;19.57;102665.69;18411465;32;20093;-65
2022/03/19 17:09:02;;;;;;;4.82;2.33;;;;;;;10.64;19.95;102681.16;18407724;32;20105;-65
2022/03/19 17:19:07;;;;;;;5.32;2.55;;;;;;;10.44;20.18;102693.56;18390773;32;20147;-64
2022/03/19 17:29:10;;;;;;;4.40;2.40;;;;;;;10.33;20.42;102701.84;18397751;32;20149;-65
2022/03/19 17:39:15;;;;;;;7.07;3.22;;;;;;;9.60;21.80;102719.16;18396581;32;20161;-64
2022/03/19 17:49:18;;;;;;;3.97;2.58;;;;;;;9.46;22.11;102742.06;18398813;32;20092;-64
2022/03/19 17:59:23;;;;;;;5.30;2.47;;;;;;;9.51;22.47;102753.53;18399903;32;20089;-65
2022/03/19 18:09:27;;;;;;;11.93;4.07;;;;;;;9.22;23.61;102772.41;18396654;32;20153;-64
2022/03/19 18:19:32;;;;;;;9.07;4.87;;;;;;;8.68;24.94;102789.22;18397664;32;20093;-65
2022/03/19 18:29:36;;;;;;;19.83;8.68;;;;;;;8.23;26.03;102789.78;18395950;32;20085;-64
2022/03/19 18:39:40;;;;;;;18.90;7.28;;;;;;;8.15;25.70;102806.75;18393586;32;20109;-66
2022/03/19 18:49:51;;;;;;;10.65;6.78;;;;;;;7.56;27.16;102803.97;18392872;32;20089;-64
2022/03/19 18:59:56;;;;;;;16.17;5.53;;;;;;;6.93;30.63;102810.41;18366824;32;20143;-64
2022/03/19 19:10:00;;;;;;;12.13;5.90;;;;;;;6.40;30.52;102828.38;18342497;32;873342;-64
2022/03/19 19:20:05;;;;;;;14.18;6.90;;;;;;;6.31;31.19;102844.38;18367867;32;20413;-64
2022/03/19 19:30:09;;;;;;;6.07;3.72;;;;;;;5.91;31.80;102847.28;18368809;32;20175;-64
2022/03/19 19:40:14;;;;;;;4.45;3.35;;;;;;;5.73;33.10;102857.50;18414116;32;20358;-64
2022/03/19 19:50:18;;;;;;;6.60;3.40;;;;;;;5.37;34.48;102858.06;18413129;32;20105;-64
2022/03/19 20:00:30;;;;;;;6.43;4.40;;;;;;;4.72;35.79;102881.84;18406872;32;20168;-65
2022/03/19 20:10:33;;;;;;;;;;;;;;;4.62;35.75;102896.69;18421559;32;20139;-64
2022/03/19 20:20:39;;;;;;;9.55;4.05;;;;;;;4.23;37.50;102904.63;18396724;32;19976;-64
2022/03/19 20:30:57;;;;;;;7.90;4.40;;;;;;;3.85;37.78;102907.38;18396286;32;20120;-64
2022/03/19 20:41:08;;;;;;;7.75;5.78;;;;;;;3.44;40.27;102903.81;18394248;32;20089;-64
2022/03/19 20:51:12;;;;;;;6.15;3.37;;;;;;;3.07;40.60;102909.06;18395742;32;20386;-65
2022/03/19 21:01:17;;;;;;;2.75;2.55;;;;;;;2.74;41.14;102917.13;18392081;32;20159;-65
2022/03/19 21:21:44;;;;;;;5.07;3.47;;;;;;;1.99;42.99;102918.66;18428006;32;20175;-64
2022/03/19 21:31:47;;;;;;;8.82;4.05;;;;;;;2.02;42.59;102921.47;18427068;32;20388;-64
2022/03/19 21:41:52;;;;;;;3.10;2.85;;;;;;;2.14;41.18;102931.78;18430764;32;20105;-64
2022/03/19 21:51:55;;;;;;;6.37;2.40;;;;;;;1.98;41.54;102934.87;18436721;32;20104;-64
2022/03/19 22:02:00;;;;;;;6.95;2.35;;;;;;;1.59;42.07;102946.56;18435011;32;20441;-64
2022/03/19 22:12:03;;;;;;;3.17;2.65;;;;;;;1.66;43.95;102946.25;18435146;32;20107;-64
2022/03/19 22:22:08;;;;;;;1.70;1.60;;;;;;;1.64;40.83;102943.56;18434709;32;20146;-64
2022/03/19 22:32:11;;;;;;;2.75;2.55;;;;;;;1.17;43.21;102964.91;18434408;32;20150;-64
2022/03/19 22:42:17;;;;;;;6.22;3.72;;;;;;;1.44;45.23;102969.47;18434016;32;20142;-64
2022/03/19 22:52:22;;;;;;;4.40;3.13;;;;;;;1.59;48.23;102968.09;18432857;32;20072;-64
2022/03/19 23:02:29;;;;;;;4.22;1.75;;;;;;;1.88;48.13;102977.09;18433579;32;20575;-64
2022/03/19 23:12:33;;;;;;;6.90;2.47;;;;;;;1.52;48.75;102987.31;18433506;32;20089;-64
2022/03/19 23:22:38;;;;;;;2.08;1.83;;;;;;;1.47;48.28;102983.47;18433407;32;20138;-64
2022/03/19 23:32:41;;;;;;;3.63;3.33;;;;;;;1.23;47.91;102983.41;18432871;32;20111;-64
2022/03/19 23:42:46;;;;;;;3.17;2.87;;;;;;;1.29;48.55;102976.91;18432741;32;20123;-64
2022/03/19 23:52:49;;;;;;;4.82;2.83;;;;;;;1.46;43.68;102984.25;18432186;32;20446;-64
